createdAt,value
2022-08-07T00:00:43.170Z,18.96
2022-08-07T00:03:47.416Z,18.94
2022-08-07T00:06:51.763Z,18.92
2022-08-07T00:10:19.002Z,18.90
2022-08-07T00:13:25.854Z,18.85
2022-08-07T00:16:30.573Z,18.84
2022-08-07T00:20:00.979Z,18.79
2022-08-07T00:22:57.196Z,18.72
2022-08-07T00:26:13.405Z,18.69
2022-08-07T00:29:31.254Z,18.67
2022-08-07T00:32:35.270Z,18.65
2022-08-07T00:35:38.761Z,18.62
2022-08-07T00:38:41.827Z,18.57
2022-08-07T00:42:02.079Z,18.52
2022-08-07T00:45:16.135Z,18.42
2022-08-07T00:48:19.815Z,18.39
2022-08-07T00:51:56.969Z,18.38
2022-08-07T00:54:59.631Z,18.35
2022-08-07T00:58:08.172Z,18.31
2022-08-07T01:01:11.948Z,18.29
2022-08-07T01:04:24.791Z,18.25
2022-08-07T01:07:29.287Z,18.24
2022-08-07T01:10:32.700Z,18.21
2022-08-07T01:13:38.129Z,18.16
2022-08-07T01:16:42.929Z,18.12
2022-08-07T01:19:54.403Z,18.11
2022-08-07T01:23:00.789Z,18.11
2022-08-07T01:26:19.524Z,18.11
2022-08-07T01:29:28.014Z,18.14
2022-08-07T01:32:34.716Z,18.12
2022-08-07T01:35:53.398Z,18.11
2022-08-07T01:38:58.278Z,18.12
2022-08-07T01:42:36.766Z,18.12
2022-08-07T01:45:36.295Z,18.12
2022-08-07T01:48:48.269Z,18.12
2022-08-07T01:52:01.619Z,18.09
2022-08-07T01:55:11.285Z,18.07
2022-08-07T01:58:33.321Z,18.09
2022-08-07T02:01:59.634Z,18.09
2022-08-07T02:05:47.891Z,18.07
2022-08-07T02:08:42.782Z,18.07
2022-08-07T02:12:04.090Z,18.12
2022-08-07T02:15:14.495Z,18.15
2022-08-07T02:18:22.102Z,18.17
2022-08-07T02:21:56.191Z,18.17
2022-08-07T02:24:56.823Z,18.18
2022-08-07T02:28:01.767Z,18.18
2022-08-07T02:31:28.492Z,18.16
2022-08-07T02:34:37.698Z,18.13
2022-08-07T02:37:53.657Z,18.14
2022-08-07T02:40:58.408Z,18.17
2022-08-07T02:44:04.259Z,18.16
2022-08-07T02:47:08.764Z,18.11
2022-08-07T02:50:23.306Z,18.07
2022-08-07T02:53:39.731Z,18.04
2022-08-07T02:56:46.850Z,18.02
2022-08-07T02:59:54.906Z,17.97
2022-08-07T03:03:07.648Z,17.93
2022-08-07T03:06:26.201Z,17.87
2022-08-07T03:09:44.697Z,17.78
2022-08-07T03:13:20.606Z,17.70
2022-08-07T03:16:27.823Z,17.60
2022-08-07T03:19:36.936Z,17.53
2022-08-07T03:22:42.458Z,17.44
2022-08-07T03:25:58.223Z,17.38
2022-08-07T03:29:11.024Z,17.36
2022-08-07T03:32:17.087Z,17.35
2022-08-07T03:35:26.166Z,17.34
2022-08-07T03:43:13.551Z,17.25
2022-08-07T03:46:18.779Z,17.26
2022-08-07T03:49:22.199Z,17.28
2022-08-07T03:52:30.038Z,17.31
2022-08-07T03:56:33.204Z,17.39
2022-08-07T04:00:37.906Z,17.43
2022-08-07T04:03:55.071Z,17.47
2022-08-07T04:07:18.161Z,17.52
2022-08-07T04:10:26.203Z,17.57
2022-08-07T04:14:10.055Z,17.59
2022-08-07T04:16:58.589Z,17.60
2022-08-07T04:20:02.032Z,17.63
2022-08-07T04:23:06.233Z,17.63
2022-08-07T04:26:09.923Z,17.63
2022-08-07T04:29:14.846Z,17.63
2022-08-07T04:32:33.910Z,17.65
2022-08-07T04:35:39.002Z,17.66
2022-08-07T04:38:42.072Z,17.68
2022-08-07T04:41:50.422Z,17.72
2022-08-07T04:45:57.905Z,17.74
2022-08-07T04:49:28.307Z,17.76
2022-08-07T04:52:55.106Z,17.78
2022-08-07T04:58:12.545Z,17.84
2022-08-07T05:00:12.559Z,17.81
2022-08-07T05:04:00.282Z,17.86
2022-08-07T05:07:19.770Z,17.91
2022-08-07T05:10:33.664Z,17.95
2022-08-07T05:14:53.901Z,18.00
2022-08-07T05:17:14.198Z,17.95
2022-08-07T05:20:42.845Z,17.89
2022-08-07T05:23:50.361Z,17.86
2022-08-07T05:26:58.873Z,17.81
2022-08-07T05:30:03.641Z,17.83
2022-08-07T05:33:22.686Z,17.82
2022-08-07T05:36:30.379Z,17.80
2022-08-07T05:40:14.269Z,17.85
2022-08-07T05:43:02.018Z,17.88
2022-08-07T05:46:06.633Z,17.90
2022-08-07T05:49:12.957Z,17.95
2022-08-07T05:52:20.337Z,17.96
2022-08-07T05:55:25.421Z,17.91
2022-08-07T05:58:52.754Z,17.91
2022-08-07T06:01:59.461Z,17.93
2022-08-07T06:05:07.690Z,18.00
2022-08-07T06:13:16.622Z,18.01
2022-08-07T06:16:22.752Z,18.05
2022-08-07T06:19:57.799Z,18.11
2022-08-07T06:23:02.139Z,18.17
2022-08-07T06:26:21.722Z,18.19
2022-08-07T06:29:31.400Z,18.23
2022-08-07T06:32:35.555Z,18.26
2022-08-07T06:36:06.244Z,18.25
2022-08-07T06:40:16.869Z,18.34
2022-08-07T06:42:40.061Z,18.47
2022-08-07T06:45:44.860Z,18.58
2022-08-07T06:48:50.599Z,18.67
2022-08-07T06:51:59.568Z,18.74
2022-08-07T06:55:31.196Z,18.80
2022-08-07T07:00:12.928Z,18.86
2022-08-07T07:02:54.613Z,18.91
2022-08-07T07:06:03.730Z,18.95
2022-08-07T07:09:24.928Z,18.97
2022-08-07T07:12:41.856Z,19.01
2022-08-07T07:16:00.579Z,19.07
2022-08-07T07:19:19.007Z,19.13
2022-08-07T07:22:36.590Z,19.17
2022-08-07T07:26:34.226Z,19.19
2022-08-07T07:29:38.638Z,19.22
2022-08-07T07:32:40.645Z,19.25
2022-08-07T07:36:04.733Z,19.28
2022-08-07T07:39:11.753Z,19.30
2022-08-07T07:42:25.680Z,19.29
2022-08-07T07:46:37.201Z,19.28
2022-08-07T07:48:59.964Z,19.34
2022-08-07T07:52:17.492Z,19.39
2022-08-07T07:55:22.955Z,19.44
2022-08-07T07:58:40.775Z,19.48
2022-08-07T08:02:04.142Z,19.48
2022-08-07T08:05:17.057Z,19.51
2022-08-07T08:08:36.187Z,19.53
2022-08-07T08:11:59.632Z,19.55
2022-08-07T08:15:07.002Z,19.60
2022-08-07T08:18:17.777Z,19.65
2022-08-07T08:21:55.702Z,19.66
2022-08-07T08:25:42.594Z,19.68
2022-08-07T08:28:52.118Z,19.72
2022-08-07T08:32:17.225Z,19.79
2022-08-07T08:35:42.909Z,19.82
2022-08-07T08:38:51.729Z,19.83
2022-08-07T08:42:05.225Z,19.91
2022-08-07T08:45:59.197Z,20.00
2022-08-07T08:54:12.279Z,20.09
2022-08-07T08:57:30.341Z,20.16
2022-08-07T09:00:48.381Z,20.24
2022-08-07T09:05:07.030Z,20.30
2022-08-07T09:08:58.217Z,20.26
2022-08-07T09:12:31.223Z,20.30
2022-08-07T09:16:50.265Z,20.46
2022-08-07T09:20:01.868Z,20.53
2022-08-07T09:24:54.740Z,20.56
2022-08-07T09:28:00.268Z,20.52
2022-08-07T09:31:48.536Z,20.64
2022-08-07T09:35:04.573Z,20.69
2022-08-07T09:38:41.934Z,20.75
2022-08-07T09:42:04.079Z,20.84
2022-08-07T09:47:49.576Z,20.94
2022-08-07T09:50:02.027Z,20.93
2022-08-07T09:53:02.633Z,20.93
2022-08-07T09:56:34.042Z,21.02
2022-08-07T10:00:00.726Z,21.12
2022-08-07T10:04:06.452Z,21.26
2022-08-07T10:06:56.973Z,21.43
2022-08-07T10:10:28.276Z,21.56
2022-08-07T10:14:06.826Z,21.58
2022-08-07T10:18:01.572Z,21.60
2022-08-07T10:21:19.745Z,21.65
2022-08-07T10:24:54.530Z,21.60
2022-08-07T10:28:23.903Z,21.56
2022-08-07T10:31:31.548Z,21.61
2022-08-07T10:34:54.716Z,21.69
2022-08-07T10:38:36.108Z,21.79
2022-08-07T10:42:09.711Z,21.92
2022-08-07T10:45:44.377Z,22.09
2022-08-07T10:49:15.238Z,22.22
2022-08-07T10:52:21.077Z,22.37
2022-08-07T10:56:11.034Z,22.56
2022-08-07T10:59:37.286Z,22.62
2022-08-07T11:02:56.636Z,22.63
2022-08-07T11:06:18.362Z,22.57
2022-08-07T11:10:10.234Z,22.51
2022-08-07T11:14:45.030Z,22.48
2022-08-07T11:16:59.416Z,22.56
2022-08-07T11:20:16.839Z,22.64
2022-08-07T11:23:48.498Z,22.76
2022-08-07T11:27:03.981Z,22.84
2022-08-07T11:30:18.248Z,22.89
2022-08-07T11:33:59.297Z,22.99
2022-08-07T11:37:03.551Z,22.86
2022-08-07T11:40:36.732Z,22.74
2022-08-07T11:44:12.082Z,22.74
2022-08-07T11:47:55.979Z,22.71
2022-08-07T11:51:41.157Z,22.74
2022-08-07T11:55:13.004Z,22.97
2022-08-07T11:58:50.957Z,23.33
2022-08-07T12:02:20.708Z,23.69
2022-08-07T12:05:47.512Z,23.98
2022-08-07T12:09:05.622Z,24.05
2022-08-07T12:12:18.059Z,23.81
2022-08-07T12:15:46.688Z,23.75
2022-08-07T12:19:06.885Z,24.02
2022-08-07T12:22:58.475Z,24.30
2022-08-07T12:26:29.991Z,24.60
2022-08-07T12:29:51.773Z,24.83
2022-08-07T12:33:22.954Z,25.05
2022-08-07T12:36:35.167Z,25.27
2022-08-07T12:39:50.549Z,25.55
2022-08-07T12:43:00.207Z,25.80
2022-08-07T12:46:43.256Z,26.01
2022-08-07T12:50:04.969Z,26.21
2022-08-07T12:53:17.333Z,26.36
2022-08-07T12:56:37.011Z,26.51
2022-08-07T12:59:54.235Z,26.60
2022-08-07T13:03:59.151Z,26.78
2022-08-07T13:08:12.283Z,27.10
2022-08-07T13:10:59.776Z,27.44
2022-08-07T13:14:31.617Z,27.53
2022-08-07T13:17:49.915Z,27.39
2022-08-07T13:21:09.779Z,27.10
2022-08-07T13:24:25.893Z,26.70
2022-08-07T13:28:13.765Z,26.29
2022-08-07T13:31:21.219Z,25.96
2022-08-07T13:34:35.458Z,25.60
2022-08-07T13:37:58.961Z,25.37
2022-08-07T13:41:47.443Z,25.23
2022-08-07T13:45:20.586Z,25.50
2022-08-07T13:48:27.376Z,26.05
2022-08-07T13:52:22.943Z,26.68
2022-08-07T13:55:10.762Z,27.31
2022-08-07T13:58:35.481Z,27.72
2022-08-07T14:01:51.639Z,28.02
2022-08-07T14:05:12.274Z,28.21
2022-08-07T14:08:16.331Z,28.32
2022-08-07T14:11:23.546Z,28.48
2022-08-07T14:14:49.389Z,28.72
2022-08-07T14:18:15.964Z,28.80
2022-08-07T14:22:01.890Z,28.41
2022-08-07T14:25:07.182Z,28.16
2022-08-07T14:28:14.329Z,28.11
2022-08-07T14:31:19.320Z,28.27
2022-08-07T14:34:30.453Z,28.63
2022-08-07T14:37:39.861Z,29.04
2022-08-07T14:40:49.319Z,29.41
2022-08-07T14:43:58.780Z,29.65
2022-08-07T14:47:14.565Z,29.84
2022-08-07T14:50:22.813Z,30.01
2022-08-07T14:56:57.815Z,30.17
2022-08-07T15:00:08.456Z,30.19
2022-08-07T15:03:16.644Z,30.27
2022-08-07T15:06:30.147Z,30.38
2022-08-07T15:10:00.025Z,30.24
2022-08-07T15:13:16.051Z,30.09
2022-08-07T15:16:31.040Z,30.11
2022-08-07T15:26:55.845Z,30.63
2022-08-07T15:30:16.670Z,30.76
2022-08-07T15:33:21.342Z,30.79
2022-08-07T15:37:03.732Z,30.77
2022-08-07T15:40:11.528Z,30.26
2022-08-07T15:46:51.960Z,29.11
2022-08-07T15:53:48.599Z,29.24
2022-08-07T15:57:00.802Z,29.49
2022-08-07T16:00:06.356Z,29.76
2022-08-07T16:03:21.447Z,29.87
2022-08-07T16:06:53.293Z,29.77
2022-08-07T16:10:14.770Z,29.50
2022-08-07T16:14:00.000Z,29.23
2022-08-07T16:18:01.599Z,29.01
2022-08-07T16:21:44.145Z,28.76
2022-08-07T16:24:34.768Z,28.73
2022-08-07T16:27:58.508Z,28.79
2022-08-07T16:31:50.321Z,28.94
2022-08-07T16:34:56.191Z,29.02
2022-08-07T16:38:16.590Z,29.08
2022-08-07T16:42:00.375Z,29.07
2022-08-07T16:46:07.823Z,29.12
2022-08-07T16:50:26.872Z,29.22
2022-08-07T16:53:14.973Z,29.32
2022-08-07T16:57:01.189Z,29.32
2022-08-07T17:00:14.983Z,29.27
2022-08-07T17:03:57.767Z,29.26
2022-08-07T17:07:55.729Z,29.24
2022-08-07T17:10:56.829Z,29.20
2022-08-07T17:14:17.844Z,29.14
2022-08-07T17:17:45.988Z,28.99
2022-08-07T17:20:54.819Z,28.89
2022-08-07T17:24:23.810Z,28.81
2022-08-07T17:27:51.166Z,28.67
2022-08-07T17:31:16.465Z,28.59
2022-08-07T17:34:35.478Z,28.53
2022-08-07T17:38:09.307Z,28.44
2022-08-07T17:42:02.104Z,28.36
2022-08-07T17:45:20.114Z,28.28
2022-08-07T17:48:34.442Z,28.24
2022-08-07T17:51:59.601Z,28.21
2022-08-07T17:55:16.657Z,28.15
2022-08-07T17:59:08.998Z,28.09
2022-08-07T18:02:23.199Z,27.92
2022-08-07T18:06:03.327Z,27.81
2022-08-07T18:09:06.212Z,27.64
2022-08-07T18:12:37.730Z,27.45
2022-08-07T18:16:06.523Z,27.28
2022-08-07T18:21:05.946Z,27.08
2022-08-07T18:23:04.715Z,26.85
2022-08-07T18:26:15.138Z,26.66
2022-08-07T18:30:31.972Z,26.50
2022-08-07T18:34:37.649Z,26.27
2022-08-07T18:38:59.080Z,26.10
2022-08-07T18:41:46.360Z,25.93
2022-08-07T18:45:44.066Z,25.82
2022-08-07T18:50:04.970Z,25.70
2022-08-07T18:52:34.836Z,25.56
2022-08-07T18:55:56.140Z,25.41
2022-08-07T18:59:47.685Z,25.25
2022-08-07T19:02:59.739Z,25.15
2022-08-07T19:06:16.398Z,25.05
2022-08-07T19:09:57.568Z,24.93
2022-08-07T19:13:21.755Z,24.77
2022-08-07T19:17:00.765Z,24.66
2022-08-07T19:20:29.698Z,24.56
2022-08-07T19:23:59.021Z,24.45
2022-08-07T19:28:30.701Z,24.42
2022-08-07T19:31:03.675Z,24.40
2022-08-07T19:34:05.216Z,24.34
2022-08-07T19:37:17.610Z,24.27
2022-08-07T19:40:31.390Z,24.26
2022-08-07T19:43:52.002Z,24.23
2022-08-07T19:47:14.205Z,24.17
2022-08-07T19:50:41.227Z,24.15
2022-08-07T19:54:32.943Z,24.10
2022-08-07T19:58:02.925Z,24.00
2022-08-07T20:00:55.399Z,23.97
2022-08-07T20:04:01.136Z,23.94
2022-08-07T20:07:11.563Z,23.94
2022-08-07T20:10:37.931Z,23.91
2022-08-07T20:13:53.230Z,23.86
2022-08-07T20:17:00.917Z,23.82
2022-08-07T20:20:09.110Z,23.77
2022-08-07T20:23:40.905Z,23.74
2022-08-07T20:26:54.792Z,23.67
2022-08-07T20:30:00.985Z,23.63
2022-08-07T20:33:09.090Z,23.60
2022-08-07T20:36:30.379Z,23.53
2022-08-07T20:40:02.756Z,23.45
2022-08-07T20:43:01.432Z,23.35
2022-08-07T20:46:26.827Z,23.33
2022-08-07T20:49:59.135Z,23.26
2022-08-07T20:52:57.419Z,23.18
2022-08-07T20:56:03.015Z,23.15
2022-08-07T20:59:06.739Z,23.11
2022-08-07T21:02:53.959Z,23.10
2022-08-07T21:06:21.564Z,23.08
2022-08-07T21:09:51.944Z,23.03
2022-08-07T21:12:59.840Z,23.02
2022-08-07T21:16:05.425Z,22.99
2022-08-07T21:19:14.010Z,22.95
2022-08-07T21:22:19.102Z,22.90
2022-08-07T21:26:01.395Z,22.86
2022-08-07T21:29:18.694Z,22.77
2022-08-07T21:32:46.970Z,22.74
2022-08-07T21:36:31.861Z,22.71
2022-08-07T21:39:51.778Z,22.65
2022-08-07T21:43:05.101Z,22.59
2022-08-07T21:46:25.106Z,22.56
2022-08-07T21:50:02.771Z,22.49
2022-08-07T21:53:13.372Z,22.43
2022-08-07T21:56:36.483Z,22.43
2022-08-07T22:00:04.072Z,22.39
2022-08-07T22:03:30.829Z,22.35
2022-08-07T22:06:50.483Z,22.30
2022-08-07T22:09:59.822Z,22.26
2022-08-07T22:13:09.579Z,22.26
2022-08-07T22:16:43.410Z,22.27
2022-08-07T22:19:59.397Z,22.24
2022-08-07T22:23:25.509Z,22.19
2022-08-07T22:26:44.679Z,22.14
2022-08-07T22:30:03.880Z,22.10
2022-08-07T22:33:17.953Z,22.06
2022-08-07T22:37:09.339Z,22.01
2022-08-07T22:40:25.350Z,21.92
2022-08-07T22:43:39.679Z,21.89
2022-08-07T22:47:03.860Z,21.87
2022-08-07T22:50:40.783Z,21.86
2022-08-07T22:54:07.559Z,21.85
2022-08-07T22:57:25.870Z,21.84
2022-08-07T23:00:43.735Z,21.82
2022-08-07T23:04:05.023Z,21.78
2022-08-07T23:07:41.393Z,21.73
2022-08-07T23:10:57.462Z,21.65
2022-08-07T23:14:33.659Z,21.63
2022-08-07T23:17:50.545Z,21.62
2022-08-07T23:21:00.273Z,21.61
2022-08-07T23:24:19.206Z,21.58
2022-08-07T23:28:21.575Z,21.56
2022-08-07T23:32:49.272Z,21.52
2022-08-07T23:35:24.194Z,21.48
2022-08-07T23:38:45.677Z,21.42
2022-08-07T23:42:26.125Z,21.33
2022-08-07T23:46:02.900Z,21.25
2022-08-07T23:49:25.727Z,21.21
2022-08-07T23:52:59.867Z,21.16
2022-08-07T23:56:31.397Z,21.13
